sensor_id;sensor_type;location;lat;lon;timestamp;P1;durP1;ratioP1;P2;durP2;ratioP2
21352;SDS011;10834;52.268;6.770;2023-04-21T00:00:07;25.13;;;14.40;;
21352;SDS011;10834;52.268;6.770;2023-04-21T00:02:54;21.53;;;14.57;;
21352;SDS011;10834;52.268;6.770;2023-04-21T00:05:40;26.23;;;15.13;;
21352;SDS011;10834;52.268;6.770;2023-04-21T00:08:27;21.90;;;15.37;;
21352;SDS011;10834;52.268;6.770;2023-04-21T00:11:14;18.60;;;14.17;;
21352;SDS011;10834;52.268;6.770;2023-04-21T00:14:00;28.10;;;13.80;;
21352;SDS011;10834;52.268;6.770;2023-04-21T00:16:46;19.40;;;14.60;;
21352;SDS011;10834;52.268;6.770;2023-04-21T00:19:36;24.80;;;14.80;;
21352;SDS011;10834;52.268;6.770;2023-04-21T00:22:23;21.30;;;14.20;;
21352;SDS011;10834;52.268;6.770;2023-04-21T00:25:09;24.93;;;15.23;;
21352;SDS011;10834;52.268;6.770;2023-04-21T00:27:55;20.77;;;14.73;;
21352;SDS011;10834;52.268;6.770;2023-04-21T00:30:41;21.40;;;14.27;;
21352;SDS011;10834;52.268;6.770;2023-04-21T00:33:27;25.03;;;15.67;;
21352;SDS011;10834;52.268;6.770;2023-04-21T00:36:13;24.40;;;15.90;;
21352;SDS011;10834;52.268;6.770;2023-04-21T00:38:59;20.87;;;15.10;;
21352;SDS011;10834;52.268;6.770;2023-04-21T00:41:45;19.40;;;14.63;;
21352;SDS011;10834;52.268;6.770;2023-04-21T00:44:31;24.90;;;15.77;;
21352;SDS011;10834;52.268;6.770;2023-04-21T00:47:17;20.67;;;15.00;;
21352;SDS011;10834;52.268;6.770;2023-04-21T00:50:03;24.33;;;17.20;;
21352;SDS011;10834;52.268;6.770;2023-04-21T00:52:50;23.93;;;16.90;;
21352;SDS011;10834;52.268;6.770;2023-04-21T00:55:36;26.23;;;16.27;;
21352;SDS011;10834;52.268;6.770;2023-04-21T00:58:23;22.77;;;15.53;;
21352;SDS011;10834;52.268;6.770;2023-04-21T01:01:09;26.83;;;16.83;;
21352;SDS011;10834;52.268;6.770;2023-04-21T01:03:58;24.10;;;16.10;;
21352;SDS011;10834;52.268;6.770;2023-04-21T01:06:45;22.70;;;16.17;;
21352;SDS011;10834;52.268;6.770;2023-04-21T01:09:31;20.00;;;15.57;;
21352;SDS011;10834;52.268;6.770;2023-04-21T01:12:18;26.17;;;17.50;;
21352;SDS011;10834;52.268;6.770;2023-04-21T01:15:04;23.60;;;17.53;;
21352;SDS011;10834;52.268;6.770;2023-04-21T01:17:51;28.07;;;16.33;;
21352;SDS011;10834;52.268;6.770;2023-04-21T01:20:38;29.60;;;17.70;;
21352;SDS011;10834;52.268;6.770;2023-04-21T01:23:25;25.23;;;17.13;;
21352;SDS011;10834;52.268;6.770;2023-04-21T01:26:11;25.43;;;18.43;;
21352;SDS011;10834;52.268;6.770;2023-04-21T01:28:57;25.97;;;17.50;;
21352;SDS011;10834;52.268;6.770;2023-04-21T01:31:43;28.03;;;17.57;;
21352;SDS011;10834;52.268;6.770;2023-04-21T01:34:31;24.17;;;16.83;;
21352;SDS011;10834;52.268;6.770;2023-04-21T01:37:19;26.77;;;18.10;;
21352;SDS011;10834;52.268;6.770;2023-04-21T01:40:07;25.53;;;17.13;;
21352;SDS011;10834;52.268;6.770;2023-04-21T01:42:54;25.47;;;15.43;;
21352;SDS011;10834;52.268;6.770;2023-04-21T01:45:40;24.60;;;16.90;;
21352;SDS011;10834;52.268;6.770;2023-04-21T01:48:26;25.53;;;17.13;;
21352;SDS011;10834;52.268;6.770;2023-04-21T01:51:12;28.10;;;18.77;;
21352;SDS011;10834;52.268;6.770;2023-04-21T01:53:58;25.83;;;16.67;;
21352;SDS011;10834;52.268;6.770;2023-04-21T01:56:44;24.07;;;16.77;;
21352;SDS011;10834;52.268;6.770;2023-04-21T01:59:31;26.70;;;17.33;;
21352;SDS011;10834;52.268;6.770;2023-04-21T02:02:17;23.13;;;16.97;;
21352;SDS011;10834;52.268;6.770;2023-04-21T02:05:03;25.97;;;17.17;;
21352;SDS011;10834;52.268;6.770;2023-04-21T02:07:49;26.83;;;16.67;;
21352;SDS011;10834;52.268;6.770;2023-04-21T02:10:35;21.00;;;15.17;;
21352;SDS011;10834;52.268;6.770;2023-04-21T02:13:22;25.70;;;18.53;;
21352;SDS011;10834;52.268;6.770;2023-04-21T02:16:08;26.43;;;19.50;;
21352;SDS011;10834;52.268;6.770;2023-04-21T02:18:54;29.83;;;18.30;;
21352;SDS011;10834;52.268;6.770;2023-04-21T02:21:41;25.90;;;17.63;;
21352;SDS011;10834;52.268;6.770;2023-04-21T02:24:27;23.57;;;17.27;;
21352;SDS011;10834;52.268;6.770;2023-04-21T02:27:13;28.47;;;17.93;;
21352;SDS011;10834;52.268;6.770;2023-04-21T02:29:59;22.70;;;16.13;;
21352;SDS011;10834;52.268;6.770;2023-04-21T02:32:45;22.57;;;16.30;;
21352;SDS011;10834;52.268;6.770;2023-04-21T02:35:31;24.20;;;17.10;;
21352;SDS011;10834;52.268;6.770;2023-04-21T02:38:18;25.97;;;16.90;;
21352;SDS011;10834;52.268;6.770;2023-04-21T02:41:04;24.43;;;17.97;;
21352;SDS011;10834;52.268;6.770;2023-04-21T02:43:50;28.47;;;18.53;;
21352;SDS011;10834;52.268;6.770;2023-04-21T02:46:38;22.47;;;16.47;;
21352;SDS011;10834;52.268;6.770;2023-04-21T02:49:27;23.70;;;17.70;;
21352;SDS011;10834;52.268;6.770;2023-04-21T02:52:13;24.03;;;16.53;;
21352;SDS011;10834;52.268;6.770;2023-04-21T02:55:00;24.90;;;17.53;;
21352;SDS011;10834;52.268;6.770;2023-04-21T02:57:47;25.00;;;17.10;;
21352;SDS011;10834;52.268;6.770;2023-04-21T03:00:33;26.47;;;17.63;;
21352;SDS011;10834;52.268;6.770;2023-04-21T03:03:20;25.03;;;17.77;;
21352;SDS011;10834;52.268;6.770;2023-04-21T03:06:06;26.27;;;17.80;;
21352;SDS011;10834;52.268;6.770;2023-04-21T03:08:52;24.43;;;17.77;;
21352;SDS011;10834;52.268;6.770;2023-04-21T03:11:38;25.07;;;17.30;;
21352;SDS011;10834;52.268;6.770;2023-04-21T03:14:24;25.87;;;17.23;;
21352;SDS011;10834;52.268;6.770;2023-04-21T03:17:10;24.30;;;16.20;;
21352;SDS011;10834;52.268;6.770;2023-04-21T03:19:56;27.40;;;17.80;;
21352;SDS011;10834;52.268;6.770;2023-04-21T03:22:42;23.10;;;17.87;;
21352;SDS011;10834;52.268;6.770;2023-04-21T03:25:28;25.00;;;16.67;;
21352;SDS011;10834;52.268;6.770;2023-04-21T03:28:14;31.33;;;18.30;;
21352;SDS011;10834;52.268;6.770;2023-04-21T03:31:01;24.70;;;16.80;;
21352;SDS011;10834;52.268;6.770;2023-04-21T03:33:47;28.43;;;18.27;;
21352;SDS011;10834;52.268;6.770;2023-04-21T03:36:33;23.97;;;17.50;;
21352;SDS011;10834;52.268;6.770;2023-04-21T03:39:19;29.90;;;18.50;;
21352;SDS011;10834;52.268;6.770;2023-04-21T03:42:05;23.03;;;17.80;;
21352;SDS011;10834;52.268;6.770;2023-04-21T03:44:51;27.03;;;17.03;;
21352;SDS011;10834;52.268;6.770;2023-04-21T03:47:37;23.70;;;16.97;;
21352;SDS011;10834;52.268;6.770;2023-04-21T03:50:23;23.23;;;18.63;;
21352;SDS011;10834;52.268;6.770;2023-04-21T03:53:09;24.67;;;17.00;;
21352;SDS011;10834;52.268;6.770;2023-04-21T03:55:55;25.90;;;18.17;;
21352;SDS011;10834;52.268;6.770;2023-04-21T03:58:42;23.47;;;17.33;;
21352;SDS011;10834;52.268;6.770;2023-04-21T04:01:28;26.53;;;17.17;;
21352;SDS011;10834;52.268;6.770;2023-04-21T04:04:14;25.73;;;18.03;;
21352;SDS011;10834;52.268;6.770;2023-04-21T04:07:00;21.37;;;17.73;;
21352;SDS011;10834;52.268;6.770;2023-04-21T04:09:46;27.00;;;16.97;;
21352;SDS011;10834;52.268;6.770;2023-04-21T04:12:32;22.80;;;17.90;;
21352;SDS011;10834;52.268;6.770;2023-04-21T04:15:18;25.83;;;18.93;;
21352;SDS011;10834;52.268;6.770;2023-04-21T04:18:04;26.00;;;18.37;;
21352;SDS011;10834;52.268;6.770;2023-04-21T04:20:50;29.93;;;18.90;;
21352;SDS011;10834;52.268;6.770;2023-04-21T04:23:36;24.97;;;17.93;;
21352;SDS011;10834;52.268;6.770;2023-04-21T04:26:23;28.10;;;18.07;;
21352;SDS011;10834;52.268;6.770;2023-04-21T04:29:10;26.27;;;18.60;;
21352;SDS011;10834;52.268;6.770;2023-04-21T04:31:56;25.40;;;18.03;;
21352;SDS011;10834;52.268;6.770;2023-04-21T04:34:42;26.97;;;17.93;;
21352;SDS011;10834;52.268;6.770;2023-04-21T04:37:28;26.43;;;18.67;;
21352;SDS011;10834;52.268;6.770;2023-04-21T04:40:14;24.90;;;17.57;;
21352;SDS011;10834;52.268;6.770;2023-04-21T04:43:00;24.67;;;18.30;;
21352;SDS011;10834;52.268;6.770;2023-04-21T04:45:47;30.40;;;18.50;;
21352;SDS011;10834;52.268;6.770;2023-04-21T04:48:33;24.67;;;17.93;;
21352;SDS011;10834;52.268;6.770;2023-04-21T04:51:19;27.10;;;18.30;;
21352;SDS011;10834;52.268;6.770;2023-04-21T04:54:05;24.70;;;18.70;;
21352;SDS011;10834;52.268;6.770;2023-04-21T04:56:51;29.27;;;19.43;;
21352;SDS011;10834;52.268;6.770;2023-04-21T04:59:37;23.50;;;19.07;;
21352;SDS011;10834;52.268;6.770;2023-04-21T05:02:23;25.37;;;18.17;;
21352;SDS011;10834;52.268;6.770;2023-04-21T05:05:09;27.73;;;18.30;;
21352;SDS011;10834;52.268;6.770;2023-04-21T05:07:55;29.53;;;19.37;;
21352;SDS011;10834;52.268;6.770;2023-04-21T05:10:42;28.60;;;18.77;;
21352;SDS011;10834;52.268;6.770;2023-04-21T05:13:27;26.03;;;19.40;;
21352;SDS011;10834;52.268;6.770;2023-04-21T05:16:14;25.30;;;18.03;;
21352;SDS011;10834;52.268;6.770;2023-04-21T05:19:00;29.17;;;18.93;;
21352;SDS011;10834;52.268;6.770;2023-04-21T05:21:46;28.03;;;17.87;;
21352;SDS011;10834;52.268;6.770;2023-04-21T05:24:33;24.73;;;18.47;;
21352;SDS011;10834;52.268;6.770;2023-04-21T05:27:19;28.00;;;18.20;;
21352;SDS011;10834;52.268;6.770;2023-04-21T05:30:05;27.60;;;18.30;;
21352;SDS011;10834;52.268;6.770;2023-04-21T05:32:52;26.53;;;17.80;;
21352;SDS011;10834;52.268;6.770;2023-04-21T05:35:38;27.73;;;18.80;;
21352;SDS011;10834;52.268;6.770;2023-04-21T05:38:24;27.03;;;19.37;;
21352;SDS011;10834;52.268;6.770;2023-04-21T05:41:12;27.40;;;18.43;;
21352;SDS011;10834;52.268;6.770;2023-04-21T05:43:58;25.43;;;18.40;;
21352;SDS011;10834;52.268;6.770;2023-04-21T05:46:44;28.63;;;17.77;;
21352;SDS011;10834;52.268;6.770;2023-04-21T05:49:30;23.50;;;18.00;;
21352;SDS011;10834;52.268;6.770;2023-04-21T05:52:16;26.33;;;17.53;;
21352;SDS011;10834;52.268;6.770;2023-04-21T05:55:02;25.97;;;17.67;;
21352;SDS011;10834;52.268;6.770;2023-04-21T05:57:48;26.07;;;16.60;;
21352;SDS011;10834;52.268;6.770;2023-04-21T06:00:34;22.53;;;18.03;;
21352;SDS011;10834;52.268;6.770;2023-04-21T06:03:20;23.80;;;17.47;;
21352;SDS011;10834;52.268;6.770;2023-04-21T06:06:06;25.03;;;17.53;;
21352;SDS011;10834;52.268;6.770;2023-04-21T06:08:53;26.70;;;17.90;;
21352;SDS011;10834;52.268;6.770;2023-04-21T06:11:39;23.07;;;17.33;;
21352;SDS011;10834;52.268;6.770;2023-04-21T06:14:25;26.73;;;18.13;;
21352;SDS011;10834;52.268;6.770;2023-04-21T06:17:14;29.33;;;18.17;;
21352;SDS011;10834;52.268;6.770;2023-04-21T06:20:01;23.13;;;17.80;;
21352;SDS011;10834;52.268;6.770;2023-04-21T06:22:48;24.53;;;18.07;;
21352;SDS011;10834;52.268;6.770;2023-04-21T06:25:34;23.87;;;18.13;;
21352;SDS011;10834;52.268;6.770;2023-04-21T06:28:20;23.10;;;16.77;;
21352;SDS011;10834;52.268;6.770;2023-04-21T06:31:06;27.03;;;17.97;;
21352;SDS011;10834;52.268;6.770;2023-04-21T06:33:54;24.10;;;17.03;;
21352;SDS011;10834;52.268;6.770;2023-04-21T06:36:39;20.07;;;16.30;;
21352;SDS011;10834;52.268;6.770;2023-04-21T06:39:26;23.00;;;16.57;;
21352;SDS011;10834;52.268;6.770;2023-04-21T06:42:12;22.97;;;15.73;;
21352;SDS011;10834;52.268;6.770;2023-04-21T06:44:58;24.17;;;16.27;;
21352;SDS011;10834;52.268;6.770;2023-04-21T06:47:44;19.33;;;15.13;;
21352;SDS011;10834;52.268;6.770;2023-04-21T06:50:31;21.40;;;14.40;;
21352;SDS011;10834;52.268;6.770;2023-04-21T06:53:17;21.97;;;15.27;;
21352;SDS011;10834;52.268;6.770;2023-04-21T06:56:03;21.23;;;15.70;;
21352;SDS011;10834;52.268;6.770;2023-04-21T06:58:49;19.70;;;15.70;;
21352;SDS011;10834;52.268;6.770;2023-04-21T07:01:35;20.97;;;15.87;;
21352;SDS011;10834;52.268;6.770;2023-04-21T07:04:21;24.17;;;15.40;;
21352;SDS011;10834;52.268;6.770;2023-04-21T07:07:08;20.83;;;15.40;;
21352;SDS011;10834;52.268;6.770;2023-04-21T07:09:54;22.40;;;15.83;;
21352;SDS011;10834;52.268;6.770;2023-04-21T07:12:40;24.13;;;15.57;;
21352;SDS011;10834;52.268;6.770;2023-04-21T07:15:26;22.17;;;16.13;;
21352;SDS011;10834;52.268;6.770;2023-04-21T07:18:12;20.30;;;15.93;;
21352;SDS011;10834;52.268;6.770;2023-04-21T07:20:59;23.40;;;16.50;;
21352;SDS011;10834;52.268;6.770;2023-04-21T07:23:45;22.83;;;16.10;;
21352;SDS011;10834;52.268;6.770;2023-04-21T07:26:31;20.07;;;15.73;;
21352;SDS011;10834;52.268;6.770;2023-04-21T07:29:18;19.13;;;14.97;;
21352;SDS011;10834;52.268;6.770;2023-04-21T07:32:04;19.13;;;14.70;;
21352;SDS011;10834;52.268;6.770;2023-04-21T07:34:50;24.70;;;15.53;;
21352;SDS011;10834;52.268;6.770;2023-04-21T07:37:37;21.17;;;14.97;;
21352;SDS011;10834;52.268;6.770;2023-04-21T07:40:24;24.00;;;15.17;;
21352;SDS011;10834;52.268;6.770;2023-04-21T07:43:11;24.80;;;15.10;;
21352;SDS011;10834;52.268;6.770;2023-04-21T07:45:57;17.70;;;14.43;;
21352;SDS011;10834;52.268;6.770;2023-04-21T07:48:43;23.37;;;14.47;;
21352;SDS011;10834;52.268;6.770;2023-04-21T07:51:30;20.97;;;14.43;;
21352;SDS011;10834;52.268;6.770;2023-04-21T07:54:17;19.00;;;14.77;;
21352;SDS011;10834;52.268;6.770;2023-04-21T07:57:02;19.03;;;15.77;;
21352;SDS011;10834;52.268;6.770;2023-04-21T07:59:49;22.20;;;15.67;;
21352;SDS011;10834;52.268;6.770;2023-04-21T08:02:35;19.83;;;15.03;;
21352;SDS011;10834;52.268;6.770;2023-04-21T08:05:21;22.57;;;15.33;;
21352;SDS011;10834;52.268;6.770;2023-04-21T08:08:07;17.47;;;15.20;;
21352;SDS011;10834;52.268;6.770;2023-04-21T08:10:53;22.73;;;15.80;;
21352;SDS011;10834;52.268;6.770;2023-04-21T08:13:39;21.57;;;16.53;;
21352;SDS011;10834;52.268;6.770;2023-04-21T08:16:25;23.07;;;14.93;;
21352;SDS011;10834;52.268;6.770;2023-04-21T08:19:11;21.17;;;15.93;;
21352;SDS011;10834;52.268;6.770;2023-04-21T08:21:57;21.83;;;15.63;;
21352;SDS011;10834;52.268;6.770;2023-04-21T08:24:43;21.53;;;15.90;;
21352;SDS011;10834;52.268;6.770;2023-04-21T08:27:29;18.47;;;16.23;;
21352;SDS011;10834;52.268;6.770;2023-04-21T08:30:15;22.93;;;16.10;;
21352;SDS011;10834;52.268;6.770;2023-04-21T08:33:01;20.90;;;15.90;;
21352;SDS011;10834;52.268;6.770;2023-04-21T08:35:47;21.13;;;16.53;;
21352;SDS011;10834;52.268;6.770;2023-04-21T08:38:33;21.37;;;16.20;;
21352;SDS011;10834;52.268;6.770;2023-04-21T08:41:19;23.83;;;16.43;;
21352;SDS011;10834;52.268;6.770;2023-04-21T08:44:10;27.03;;;17.40;;
21352;SDS011;10834;52.268;6.770;2023-04-21T08:46:56;21.23;;;15.83;;
21352;SDS011;10834;52.268;6.770;2023-04-21T08:49:44;20.10;;;16.07;;
21352;SDS011;10834;52.268;6.770;2023-04-21T08:52:31;23.03;;;16.70;;
21352;SDS011;10834;52.268;6.770;2023-04-21T08:55:17;19.37;;;16.73;;
21352;SDS011;10834;52.268;6.770;2023-04-21T08:58:04;23.47;;;18.23;;
21352;SDS011;10834;52.268;6.770;2023-04-21T09:00:51;21.63;;;16.03;;
21352;SDS011;10834;52.268;6.770;2023-04-21T09:03:37;26.93;;;17.60;;
21352;SDS011;10834;52.268;6.770;2023-04-21T09:06:23;23.70;;;16.43;;
21352;SDS011;10834;52.268;6.770;2023-04-21T09:09:25;22.30;;;17.07;;
21352;SDS011;10834;52.268;6.770;2023-04-21T09:12:11;20.90;;;16.57;;
21352;SDS011;10834;52.268;6.770;2023-04-21T09:14:57;26.87;;;16.20;;
21352;SDS011;10834;52.268;6.770;2023-04-21T09:17:45;23.50;;;16.80;;
21352;SDS011;10834;52.268;6.770;2023-04-21T09:20:31;23.70;;;17.03;;
21352;SDS011;10834;52.268;6.770;2023-04-21T09:23:17;21.20;;;15.50;;
21352;SDS011;10834;52.268;6.770;2023-04-21T09:26:05;27.07;;;18.63;;
21352;SDS011;10834;52.268;6.770;2023-04-21T09:28:52;26.23;;;17.17;;
21352;SDS011;10834;52.268;6.770;2023-04-21T09:31:38;22.47;;;17.30;;
21352;SDS011;10834;52.268;6.770;2023-04-21T09:34:25;23.57;;;16.60;;
21352;SDS011;10834;52.268;6.770;2023-04-21T09:37:11;21.63;;;17.13;;
21352;SDS011;10834;52.268;6.770;2023-04-21T09:39:58;22.67;;;16.57;;
21352;SDS011;10834;52.268;6.770;2023-04-21T09:42:45;23.20;;;16.27;;
21352;SDS011;10834;52.268;6.770;2023-04-21T09:45:31;23.67;;;15.80;;
21352;SDS011;10834;52.268;6.770;2023-04-21T09:48:18;22.97;;;16.43;;
21352;SDS011;10834;52.268;6.770;2023-04-21T09:51:06;22.67;;;16.67;;
21352;SDS011;10834;52.268;6.770;2023-04-21T09:53:57;24.67;;;18.03;;
21352;SDS011;10834;52.268;6.770;2023-04-21T09:56:46;22.42;;;17.65;;
21352;SDS011;10834;52.268;6.770;2023-04-21T09:59:35;24.13;;;17.17;;
21352;SDS011;10834;52.268;6.770;2023-04-21T10:02:25;22.65;;;16.92;;
21352;SDS011;10834;52.268;6.770;2023-04-21T10:05:14;22.75;;;16.52;;
21352;SDS011;10834;52.268;6.770;2023-04-21T10:08:00;24.20;;;16.70;;
21352;SDS011;10834;52.268;6.770;2023-04-21T10:10:46;21.98;;;16.13;;
21352;SDS011;10834;52.268;6.770;2023-04-21T10:13:33;20.27;;;15.70;;
21352;SDS011;10834;52.268;6.770;2023-04-21T10:16:20;21.70;;;16.03;;
21352;SDS011;10834;52.268;6.770;2023-04-21T10:19:23;23.83;;;16.48;;
21352;SDS011;10834;52.268;6.770;2023-04-21T10:22:10;21.05;;;16.25;;
21352;SDS011;10834;52.268;6.770;2023-04-21T10:24:57;20.80;;;16.30;;
21352;SDS011;10834;52.268;6.770;2023-04-21T10:27:45;23.63;;;16.77;;
21352;SDS011;10834;52.268;6.770;2023-04-21T10:30:31;22.10;;;16.17;;
21352;SDS011;10834;52.268;6.770;2023-04-21T10:33:17;22.58;;;16.02;;
21352;SDS011;10834;52.268;6.770;2023-04-21T10:36:03;21.17;;;16.20;;
21352;SDS011;10834;52.268;6.770;2023-04-21T10:38:54;30.57;;;15.77;;
21352;SDS011;10834;52.268;6.770;2023-04-21T10:41:43;25.73;;;16.80;;
21352;SDS011;10834;52.268;6.770;2023-04-21T10:44:30;21.57;;;16.93;;
21352;SDS011;10834;52.268;6.770;2023-04-21T10:50:33;22.60;;;17.27;;
21352;SDS011;10834;52.268;6.770;2023-04-21T10:53:20;24.48;;;17.15;;
21352;SDS011;10834;52.268;6.770;2023-04-21T10:56:10;23.15;;;16.83;;
21352;SDS011;10834;52.268;6.770;2023-04-21T10:58:56;23.60;;;17.00;;
21352;SDS011;10834;52.268;6.770;2023-04-21T11:01:45;22.02;;;16.58;;
21352;SDS011;10834;52.268;6.770;2023-04-21T11:04:31;23.67;;;17.02;;
21352;SDS011;10834;52.268;6.770;2023-04-21T11:07:23;23.65;;;16.83;;
21352;SDS011;10834;52.268;6.770;2023-04-21T11:10:10;20.60;;;15.80;;
21352;SDS011;10834;52.268;6.770;2023-04-21T11:12:56;26.20;;;16.73;;
21352;SDS011;10834;52.268;6.770;2023-04-21T11:15:54;26.15;;;16.60;;
21352;SDS011;10834;52.268;6.770;2023-04-21T11:18:50;27.58;;;15.75;;
21352;SDS011;10834;52.268;6.770;2023-04-21T11:21:36;24.27;;;16.90;;
21352;SDS011;10834;52.268;6.770;2023-04-21T11:24:22;21.33;;;16.67;;
21352;SDS011;10834;52.268;6.770;2023-04-21T11:27:08;24.48;;;16.33;;
21352;SDS011;10834;52.268;6.770;2023-04-21T11:29:56;22.52;;;16.40;;
21352;SDS011;10834;52.268;6.770;2023-04-21T11:32:42;21.08;;;16.20;;
21352;SDS011;10834;52.268;6.770;2023-04-21T11:35:29;21.27;;;16.13;;
21352;SDS011;10834;52.268;6.770;2023-04-21T11:38:16;22.85;;;15.07;;
21352;SDS011;10834;52.268;6.770;2023-04-21T11:41:03;21.13;;;15.90;;
21352;SDS011;10834;52.268;6.770;2023-04-21T11:43:49;20.25;;;16.20;;
21352;SDS011;10834;52.268;6.770;2023-04-21T11:46:36;22.50;;;17.05;;
21352;SDS011;10834;52.268;6.770;2023-04-21T11:49:29;22.05;;;16.45;;
21352;SDS011;10834;52.268;6.770;2023-04-21T11:55:12;20.75;;;16.38;;
21352;SDS011;10834;52.268;6.770;2023-04-21T11:58:00;23.98;;;16.45;;
21352;SDS011;10834;52.268;6.770;2023-04-21T12:00:49;22.90;;;16.40;;
21352;SDS011;10834;52.268;6.770;2023-04-21T12:03:35;21.90;;;16.13;;
21352;SDS011;10834;52.268;6.770;2023-04-21T12:06:25;25.67;;;16.65;;
21352;SDS011;10834;52.268;6.770;2023-04-21T12:09:16;23.40;;;17.23;;
21352;SDS011;10834;52.268;6.770;2023-04-21T12:12:03;20.58;;;15.68;;
21352;SDS011;10834;52.268;6.770;2023-04-21T12:14:50;19.85;;;16.02;;
21352;SDS011;10834;52.268;6.770;2023-04-21T12:17:44;20.33;;;15.40;;
21352;SDS011;10834;52.268;6.770;2023-04-21T12:20:35;20.17;;;15.55;;
21352;SDS011;10834;52.268;6.770;2023-04-21T12:23:21;20.35;;;15.68;;
21352;SDS011;10834;52.268;6.770;2023-04-21T12:26:07;21.15;;;15.98;;
21352;SDS011;10834;52.268;6.770;2023-04-21T12:28:53;24.85;;;16.70;;
21352;SDS011;10834;52.268;6.770;2023-04-21T12:31:39;21.02;;;16.30;;
21352;SDS011;10834;52.268;6.770;2023-04-21T12:34:26;23.30;;;15.88;;
21352;SDS011;10834;52.268;6.770;2023-04-21T12:37:12;17.48;;;14.70;;
21352;SDS011;10834;52.268;6.770;2023-04-21T12:39:58;18.73;;;15.00;;
21352;SDS011;10834;52.268;6.770;2023-04-21T12:42:44;19.83;;;14.10;;
21352;SDS011;10834;52.268;6.770;2023-04-21T12:45:30;18.65;;;14.23;;
21352;SDS011;10834;52.268;6.770;2023-04-21T12:48:17;23.17;;;15.43;;
21352;SDS011;10834;52.268;6.770;2023-04-21T12:51:06;19.80;;;14.50;;
21352;SDS011;10834;52.268;6.770;2023-04-21T12:53:52;18.15;;;14.00;;
21352;SDS011;10834;52.268;6.770;2023-04-21T12:56:39;17.48;;;14.32;;
21352;SDS011;10834;52.268;6.770;2023-04-21T12:59:25;18.40;;;15.65;;
21352;SDS011;10834;52.268;6.770;2023-04-21T13:02:11;15.52;;;13.82;;
21352;SDS011;10834;52.268;6.770;2023-04-21T13:04:57;21.95;;;17.08;;
21352;SDS011;10834;52.268;6.770;2023-04-21T13:07:43;15.82;;;13.40;;
21352;SDS011;10834;52.268;6.770;2023-04-21T13:10:30;16.15;;;13.05;;
21352;SDS011;10834;52.268;6.770;2023-04-21T13:13:16;18.00;;;13.23;;
21352;SDS011;10834;52.268;6.770;2023-04-21T13:16:02;18.50;;;13.90;;
21352;SDS011;10834;52.268;6.770;2023-04-21T13:18:48;16.23;;;12.80;;
21352;SDS011;10834;52.268;6.770;2023-04-21T13:21:34;17.33;;;13.35;;
21352;SDS011;10834;52.268;6.770;2023-04-21T13:24:20;19.83;;;13.77;;
21352;SDS011;10834;52.268;6.770;2023-04-21T13:27:07;18.25;;;13.77;;
21352;SDS011;10834;52.268;6.770;2023-04-21T13:29:53;18.55;;;13.70;;
21352;SDS011;10834;52.268;6.770;2023-04-21T13:32:39;15.20;;;12.98;;
21352;SDS011;10834;52.268;6.770;2023-04-21T13:35:26;18.05;;;13.20;;
21352;SDS011;10834;52.268;6.770;2023-04-21T13:38:12;17.98;;;12.65;;
21352;SDS011;10834;52.268;6.770;2023-04-21T13:40:58;19.20;;;12.65;;
21352;SDS011;10834;52.268;6.770;2023-04-21T13:43:44;18.45;;;11.48;;
21352;SDS011;10834;52.268;6.770;2023-04-21T13:46:30;16.77;;;11.80;;
21352;SDS011;10834;52.268;6.770;2023-04-21T13:49:16;15.45;;;12.30;;
21352;SDS011;10834;52.268;6.770;2023-04-21T13:52:02;16.83;;;11.30;;
21352;SDS011;10834;52.268;6.770;2023-04-21T13:54:49;15.73;;;11.02;;
21352;SDS011;10834;52.268;6.770;2023-04-21T13:57:36;16.20;;;11.70;;
21352;SDS011;10834;52.268;6.770;2023-04-21T14:00:22;16.35;;;11.05;;
21352;SDS011;10834;52.268;6.770;2023-04-21T14:03:09;18.02;;;10.57;;
21352;SDS011;10834;52.268;6.770;2023-04-21T14:05:55;16.00;;;11.55;;
21352;SDS011;10834;52.268;6.770;2023-04-21T14:08:41;16.98;;;10.38;;
21352;SDS011;10834;52.268;6.770;2023-04-21T14:11:27;12.50;;;11.18;;
21352;SDS011;10834;52.268;6.770;2023-04-21T14:14:13;13.60;;;10.00;;
21352;SDS011;10834;52.268;6.770;2023-04-21T14:16:59;13.15;;;10.27;;
21352;SDS011;10834;52.268;6.770;2023-04-21T14:19:45;12.95;;;10.30;;
21352;SDS011;10834;52.268;6.770;2023-04-21T14:22:32;16.25;;;10.70;;
21352;SDS011;10834;52.268;6.770;2023-04-21T14:25:18;14.75;;;9.77;;
21352;SDS011;10834;52.268;6.770;2023-04-21T14:28:04;14.30;;;9.85;;
21352;SDS011;10834;52.268;6.770;2023-04-21T14:30:52;15.15;;;9.30;;
21352;SDS011;10834;52.268;6.770;2023-04-21T14:33:38;13.45;;;9.30;;
21352;SDS011;10834;52.268;6.770;2023-04-21T14:36:25;12.40;;;9.13;;
21352;SDS011;10834;52.268;6.770;2023-04-21T14:39:12;15.40;;;9.35;;
21352;SDS011;10834;52.268;6.770;2023-04-21T14:41:58;13.45;;;9.77;;
21352;SDS011;10834;52.268;6.770;2023-04-21T14:44:46;14.82;;;8.77;;
21352;SDS011;10834;52.268;6.770;2023-04-21T14:47:31;17.15;;;8.90;;
21352;SDS011;10834;52.268;6.770;2023-04-21T14:50:19;9.88;;;7.78;;
21352;SDS011;10834;52.268;6.770;2023-04-21T14:53:06;8.88;;;7.97;;
21352;SDS011;10834;52.268;6.770;2023-04-21T14:55:52;13.40;;;8.32;;
21352;SDS011;10834;52.268;6.770;2023-04-21T14:58:38;12.68;;;7.95;;
21352;SDS011;10834;52.268;6.770;2023-04-21T15:01:24;11.35;;;8.45;;
21352;SDS011;10834;52.268;6.770;2023-04-21T15:04:10;9.65;;;7.53;;
21352;SDS011;10834;52.268;6.770;2023-04-21T15:06:56;12.02;;;7.82;;
21352;SDS011;10834;52.268;6.770;2023-04-21T15:09:42;11.75;;;8.02;;
21352;SDS011;10834;52.268;6.770;2023-04-21T15:12:30;9.13;;;7.03;;
21352;SDS011;10834;52.268;6.770;2023-04-21T15:15:16;8.60;;;6.68;;
21352;SDS011;10834;52.268;6.770;2023-04-21T15:18:02;10.98;;;6.93;;
21352;SDS011;10834;52.268;6.770;2023-04-21T15:20:48;6.63;;;5.93;;
21352;SDS011;10834;52.268;6.770;2023-04-21T15:23:35;10.02;;;6.70;;
21352;SDS011;10834;52.268;6.770;2023-04-21T15:26:21;7.88;;;5.35;;
21352;SDS011;10834;52.268;6.770;2023-04-21T15:29:07;8.15;;;5.22;;
21352;SDS011;10834;52.268;6.770;2023-04-21T15:31:53;11.05;;;5.60;;
21352;SDS011;10834;52.268;6.770;2023-04-21T15:34:39;10.85;;;5.18;;
21352;SDS011;10834;52.268;6.770;2023-04-21T15:37:25;8.10;;;5.32;;
21352;SDS011;10834;52.268;6.770;2023-04-21T15:40:11;6.90;;;5.72;;
21352;SDS011;10834;52.268;6.770;2023-04-21T15:42:57;8.82;;;5.63;;
21352;SDS011;10834;52.268;6.770;2023-04-21T15:45:43;6.22;;;5.13;;
21352;SDS011;10834;52.268;6.770;2023-04-21T15:48:29;6.85;;;5.35;;
21352;SDS011;10834;52.268;6.770;2023-04-21T15:51:16;7.82;;;5.50;;
21352;SDS011;10834;52.268;6.770;2023-04-21T15:54:03;11.00;;;5.93;;
21352;SDS011;10834;52.268;6.770;2023-04-21T15:56:49;7.60;;;5.82;;
21352;SDS011;10834;52.268;6.770;2023-04-21T15:59:35;9.68;;;7.68;;
21352;SDS011;10834;52.268;6.770;2023-04-21T16:02:21;8.30;;;6.75;;
21352;SDS011;10834;52.268;6.770;2023-04-21T16:05:08;13.82;;;9.27;;
21352;SDS011;10834;52.268;6.770;2023-04-21T16:07:54;12.32;;;8.85;;
21352;SDS011;10834;52.268;6.770;2023-04-21T16:10:40;19.50;;;9.68;;
21352;SDS011;10834;52.268;6.770;2023-04-21T16:13:26;12.68;;;9.32;;
21352;SDS011;10834;52.268;6.770;2023-04-21T16:16:13;11.43;;;9.68;;
21352;SDS011;10834;52.268;6.770;2023-04-21T16:18:58;13.40;;;9.55;;
21352;SDS011;10834;52.268;6.770;2023-04-21T16:21:45;15.75;;;10.90;;